Time;durP1;ratioP1;P1;durP2;ratioP2;P2;SDS_P1;SDS_P2;PMS_P1;PMS_P2;Temp;Humidity;BMP_temperature;BMP_pressure;BME280_temperature;BME280_humidity;BME280_pressure;Samples;Min_cycle;Max_cycle;Signal;HPM_P1;HPM_P2
2022/08/21 00:01:25;;;;;;;10.95;7.00;;;;;;;;;;4972361;28;20046;-86
2022/08/21 00:03:51;;;;;;;11.98;7.18;;;;;;;;;;4974466;28;20054;-86
2022/08/21 00:06:17;;;;;;;11.27;6.82;;;;;;;;;;5004399;28;20500;-86
2022/08/21 00:08:44;;;;;;;11.18;7.30;;;;;;;;;;4974282;28;20043;-86
2022/08/21 00:11:11;;;;;;;12.15;7.35;;;;;;;;;;4972158;28;20058;-86
2022/08/21 00:13:37;;;;;;;14.45;7.70;;;;;;;;;;5005370;28;20049;-86
2022/08/21 00:16:03;;;;;;;13.05;7.97;;;;;;;;;;5004108;28;20492;-86
2022/08/21 00:18:29;;;;;;;12.05;7.47;;;;;;;;;;5005253;28;20105;-85
2022/08/21 00:20:56;;;;;;;10.20;7.40;;;;;;;;;;5004092;28;20053;-86
2022/08/21 00:23:22;;;;;;;10.07;7.80;;;;;;;;;;5005366;28;20054;-86
2022/08/21 00:25:48;;;;;;;9.52;7.63;;;;;;;;;;4973512;28;20113;-86
2022/08/21 00:28:15;;;;;;;10.07;7.40;;;;;;;;;;5004613;28;20090;-86
2022/08/21 00:30:42;;;;;;;10.57;7.70;;;;;;;;;;4972962;28;20122;-86
2022/08/21 00:33:09;;;;;;;12.63;8.18;;;;;;;;;;5005037;28;20531;-86
2022/08/21 00:35:36;;;;;;;10.93;8.05;;;;;;;;;;4972429;28;20047;-86
2022/08/21 00:38:03;;;;;;;10.38;7.80;;;;;;;;;;5004058;28;20051;-86
2022/08/21 00:40:35;;;;;;;14.90;8.07;;;;;;;;;;5004329;28;20094;-86
2022/08/21 00:43:03;;;;;;;11.60;8.48;;;;;;;;;;4988800;28;20082;-86
2022/08/21 00:45:29;;;;;;;12.07;8.32;;;;;;;;;;5004849;28;20047;-86
2022/08/21 00:47:56;;;;;;;11.63;7.88;;;;;;;;;;5003222;28;20055;-86
2022/08/21 00:50:22;;;;;;;13.32;8.30;;;;;;;;;;5003794;28;20122;-86
2022/08/21 00:52:49;;;;;;;13.25;8.35;;;;;;;;;;5005004;28;20065;-86
2022/08/21 00:55:16;;;;;;;9.90;7.60;;;;;;;;;;4972272;28;20046;-86
2022/08/21 00:57:47;;;;;;;10.73;7.85;;;;;;;;;;5004576;28;20500;-86
2022/08/21 01:00:16;;;;;;;12.20;7.90;;;;;;;;;;4973005;28;20046;-86
2022/08/21 01:02:42;;;;;;;14.88;8.50;;;;;;;;;;4972560;28;20061;-86
2022/08/21 01:05:10;;;;;;;11.75;8.15;;;;;;;;;;4972936;28;20117;-85
2022/08/21 01:07:37;;;;;;;10.55;7.63;;;;;;;;;;5003743;28;20074;-85
2022/08/21 01:10:05;;;;;;;13.63;8.13;;;;;;;;;;4972191;28;20200;-85
2022/08/21 01:12:31;;;;;;;12.77;7.97;;;;;;;;;;4972983;28;20046;-86
2022/08/21 01:14:58;;;;;;;13.63;8.55;;;;;;;;;;4972626;28;20051;-85
2022/08/21 01:17:24;;;;;;;14.05;8.38;;;;;;;;;;4972107;28;20051;-86
2022/08/21 01:19:50;;;;;;;12.93;8.15;;;;;;;;;;5004218;28;20062;-86
2022/08/21 01:22:16;;;;;;;11.13;8.02;;;;;;;;;;5003941;28;20046;-86
2022/08/21 01:24:42;;;;;;;14.38;8.68;;;;;;;;;;4972427;28;20043;-86
2022/08/21 01:27:08;;;;;;;12.00;8.77;;;;;;;;;;5004283;28;20182;-86
2022/08/21 01:29:51;;;;;;;16.25;8.88;;;;;;;;;;4972807;28;20526;-86
2022/08/21 01:32:19;;;;;;;13.45;8.55;;;;;;;;;;4971779;28;20166;-86
2022/08/21 01:34:46;;;;;;;14.77;8.73;;;;;;;;;;5003145;28;20396;-86
2022/08/21 01:37:12;;;;;;;13.38;8.95;;;;;;;;;;4971548;28;20047;-86
2022/08/21 01:39:38;;;;;;;11.80;8.55;;;;;;;;;;4972201;28;20061;-86
2022/08/21 01:42:05;;;;;;;13.40;9.68;;;;;;;;;;4972356;28;20050;-86
2022/08/21 01:44:31;;;;;;;14.70;8.90;;;;;;;;;;4972531;28;20376;-85
2022/08/21 01:46:59;;;;;;;14.57;8.75;;;;;;;;;;4971499;28;20046;-86
2022/08/21 01:49:25;;;;;;;12.68;8.85;;;;;;;;;;5003178;28;20113;-86
2022/08/21 01:51:51;;;;;;;12.35;8.45;;;;;;;;;;5003868;28;20042;-85
2022/08/21 01:54:18;;;;;;;14.93;8.35;;;;;;;;;;5003248;28;20054;-86
2022/08/21 01:56:46;;;;;;;13.95;9.10;;;;;;;;;;4972305;28;20087;-86
2022/08/21 01:59:12;;;;;;;12.43;8.77;;;;;;;;;;5003107;28;20050;-86
2022/08/21 02:01:41;;;;;;;12.25;9.02;;;;;;;;;;4971498;28;20035;-85
2022/08/21 02:04:08;;;;;;;13.35;9.18;;;;;;;;;;5002778;28;20176;-86
2022/08/21 02:06:34;;;;;;;12.48;8.70;;;;;;;;;;4972604;28;20047;-86
2022/08/21 02:09:01;;;;;;;12.23;8.75;;;;;;;;;;4971704;28;20101;-85
2022/08/21 02:11:27;;;;;;;13.52;9.40;;;;;;;;;;4954229;28;20056;-85
2022/08/21 02:13:53;;;;;;;13.95;8.98;;;;;;;;;;4968061;28;20039;-86
2022/08/21 02:16:19;;;;;;;14.30;9.18;;;;;;;;;;5002191;28;20101;-86
2022/08/21 02:18:45;;;;;;;16.52;9.82;;;;;;;;;;4985339;28;20054;-86
2022/08/21 02:21:11;;;;;;;13.45;9.18;;;;;;;;;;5003184;28;20097;-86
2022/08/21 02:23:38;;;;;;;12.38;9.05;;;;;;;;;;5004518;28;20051;-86
2022/08/21 02:26:06;;;;;;;12.93;8.50;;;;;;;;;;4976241;28;20062;-86
2022/08/21 02:28:32;;;;;;;14.32;9.32;;;;;;;;;;4976438;28;20051;-85
2022/08/21 02:30:59;;;;;;;14.32;8.75;;;;;;;;;;4975906;28;20049;-85
2022/08/21 02:33:25;;;;;;;15.07;8.90;;;;;;;;;;4973545;28;20047;-86
2022/08/21 02:35:52;;;;;;;16.35;8.63;;;;;;;;;;5006848;28;20054;-85
2022/08/21 02:38:19;;;;;;;11.23;8.52;;;;;;;;;;5006842;28;20547;-85
2022/08/21 02:40:47;;;;;;;12.65;8.25;;;;;;;;;;5007212;28;20480;-85
2022/08/21 02:43:13;;;;;;;13.77;9.27;;;;;;;;;;5006662;28;20054;-85
2022/08/21 02:45:39;;;;;;;12.07;8.25;;;;;;;;;;4975964;28;20408;-86
2022/08/21 02:48:07;;;;;;;13.13;8.70;;;;;;;;;;4973348;28;20054;-85
2022/08/21 02:50:35;;;;;;;12.38;8.80;;;;;;;;;;4955955;29;20047;-86
2022/08/21 02:53:01;;;;;;;10.55;7.93;;;;;;;;;;4987350;28;20051;-85
2022/08/21 02:55:28;;;;;;;15.23;8.65;;;;;;;;;;4956590;28;20138;-85
2022/08/21 02:57:55;;;;;;;13.07;8.65;;;;;;;;;;4974907;28;20057;-86
2022/08/21 03:00:23;;;;;;;19.00;8.57;;;;;;;;;;4976775;28;20047;-85
2022/08/21 03:02:49;;;;;;;11.25;7.93;;;;;;;;;;4974174;28;20050;-86
2022/08/21 03:05:16;;;;;;;11.27;8.40;;;;;;;;;;4974481;28;20074;-85
2022/08/21 03:07:43;;;;;;;16.40;8.68;;;;;;;;;;4975531;28;20476;-85
2022/08/21 03:10:09;;;;;;;12.52;8.57;;;;;;;;;;5006723;28;20484;-85
2022/08/21 03:12:35;;;;;;;13.20;7.93;;;;;;;;;;5007157;28;20504;-85
2022/08/21 03:15:06;;;;;;;13.05;8.38;;;;;;;;;;5006572;28;20093;-85
2022/08/21 03:17:33;;;;;;;12.30;8.00;;;;;;;;;;4973483;28;20512;-86
2022/08/21 03:19:59;;;;;;;11.40;7.32;;;;;;;;;;5005759;28;20054;-85
2022/08/21 03:22:26;;;;;;;13.70;7.65;;;;;;;;;;4975085;28;20035;-86
2022/08/21 03:24:53;;;;;;;12.13;7.65;;;;;;;;;;4975356;28;20039;-86
2022/08/21 03:27:19;;;;;;;10.93;6.97;;;;;;;;;;4974770;28;20093;-86
2022/08/21 03:29:45;;;;;;;15.45;8.13;;;;;;;;;;4975088;28;20074;-86
2022/08/21 03:32:12;;;;;;;13.68;7.60;;;;;;;;;;4973449;28;20503;-85
2022/08/21 03:34:38;;;;;;;15.90;7.45;;;;;;;;;;4974391;28;20377;-86
2022/08/21 03:37:05;;;;;;;12.52;7.15;;;;;;;;;;4974336;28;20451;-86
2022/08/21 03:39:31;;;;;;;13.73;7.50;;;;;;;;;;4974817;28;20476;-86
2022/08/21 03:41:59;;;;;;;11.18;7.47;;;;;;;;;;4974457;28;20438;-85
2022/08/21 03:44:30;;;;;;;11.55;7.15;;;;;;;;;;4974997;28;20073;-85
2022/08/21 03:46:56;;;;;;;12.77;7.28;;;;;;;;;;4972633;28;20133;-85
2022/08/21 03:49:22;;;;;;;10.93;7.13;;;;;;;;;;4973806;28;20504;-85
2022/08/21 03:51:48;;;;;;;14.02;7.50;;;;;;;;;;4974910;28;20047;-86
2022/08/21 03:54:14;;;;;;;14.70;7.80;;;;;;;;;;4973905;28;20057;-86
2022/08/21 03:56:40;;;;;;;12.40;7.28;;;;;;;;;;4974573;28;20043;-86
2022/08/21 03:59:07;;;;;;;14.52;7.25;;;;;;;;;;5005464;28;20047;-86
2022/08/21 04:01:33;;;;;;;9.80;6.82;;;;;;;;;;4973048;28;20042;-85
2022/08/21 04:03:59;;;;;;;13.55;7.50;;;;;;;;;;5004400;28;20145;-85
2022/08/21 04:06:26;;;;;;;12.73;7.07;;;;;;;;;;4974566;28;20047;-86
2022/08/21 04:08:52;;;;;;;14.60;7.88;;;;;;;;;;4974493;28;20050;-85
2022/08/21 04:11:19;;;;;;;12.95;7.93;;;;;;;;;;5005316;28;20122;-86
2022/08/21 04:13:46;;;;;;;14.55;7.88;;;;;;;;;;5005997;28;20081;-85
2022/08/21 04:16:13;;;;;;;12.73;7.10;;;;;;;;;;5004103;28;20078;-86
2022/08/21 04:18:39;;;;;;;11.70;7.38;;;;;;;;;;4972867;28;20125;-85
2022/08/21 04:21:06;;;;;;;13.65;7.88;;;;;;;;;;5005049;28;20047;-86
2022/08/21 04:23:32;;;;;;;12.35;8.48;;;;;;;;;;4974030;28;20539;-85
2022/08/21 04:25:58;;;;;;;11.05;7.15;;;;;;;;;;4973880;28;20085;-85
2022/08/21 04:28:25;;;;;;;13.38;7.72;;;;;;;;;;4974104;28;20051;-84
2022/08/21 04:30:52;;;;;;;12.10;7.85;;;;;;;;;;4972331;28;20047;-85
2022/08/21 04:33:18;;;;;;;11.65;7.47;;;;;;;;;;4973009;28;20125;-86
2022/08/21 04:35:44;;;;;;;13.30;7.70;;;;;;;;;;5005357;28;20046;-85
2022/08/21 04:38:10;;;;;;;13.23;7.90;;;;;;;;;;4973676;28;20042;-86
2022/08/21 04:40:36;;;;;;;10.98;7.63;;;;;;;;;;5004513;28;20105;-85
2022/08/21 04:43:04;;;;;;;12.98;8.13;;;;;;;;;;4973511;28;20047;-86
2022/08/21 04:45:35;;;;;;;12.30;7.80;;;;;;;;;;4970997;28;20039;-85
2022/08/21 04:48:02;;;;;;;12.63;7.25;;;;;;;;;;4972376;28;20054;-85
2022/08/21 04:50:43;;;;;;;12.60;7.63;;;;;;;;;;5004939;28;20053;-86
2022/08/21 04:53:25;;;;;;;13.13;7.90;;;;;;;;;;5004562;28;20247;-86
2022/08/21 04:55:52;;;;;;;11.73;7.65;;;;;;;;;;4972640;28;20058;-85
2022/08/21 04:58:20;;;;;;;14.65;8.20;;;;;;;;;;4973355;28;20166;-85
2022/08/21 05:00:47;;;;;;;16.88;7.85;;;;;;;;;;5020049;28;20101;-86
2022/08/21 05:03:15;;;;;;;15.75;7.20;;;;;;;;;;4971291;28;20051;-86
2022/08/21 05:05:41;;;;;;;16.00;8.48;;;;;;;;;;5004587;28;20050;-86
2022/08/21 05:08:08;;;;;;;11.98;7.63;;;;;;;;;;4973128;28;20043;-86
2022/08/21 05:10:34;;;;;;;15.52;7.93;;;;;;;;;;4972736;28;20055;-86
2022/08/21 05:13:00;;;;;;;11.75;7.82;;;;;;;;;;4973175;28;20126;-85
2022/08/21 05:15:27;;;;;;;16.23;8.40;;;;;;;;;;4971710;28;20078;-86
2022/08/21 05:17:53;;;;;;;15.45;7.70;;;;;;;;;;4972948;28;20105;-86
2022/08/21 05:20:19;;;;;;;16.10;7.60;;;;;;;;;;5005082;28;20042;-86
2022/08/21 05:22:45;;;;;;;11.77;7.68;;;;;;;;;;5004694;28;20078;-86
2022/08/21 05:25:11;;;;;;;15.95;7.72;;;;;;;;;;4966007;28;20042;-86
2022/08/21 05:27:38;;;;;;;16.63;7.60;;;;;;;;;;4973344;28;20073;-86
2022/08/21 05:30:07;;;;;;;13.82;8.20;;;;;;;;;;4972072;28;20054;-84
2022/08/21 05:32:33;;;;;;;11.82;7.43;;;;;;;;;;5002360;28;20043;-85
2022/08/21 05:34:59;;;;;;;14.43;7.60;;;;;;;;;;4972532;28;20057;-85
2022/08/21 05:37:25;;;;;;;14.82;7.93;;;;;;;;;;4972199;28;20507;-85
2022/08/21 05:39:51;;;;;;;15.95;7.35;;;;;;;;;;4972727;28;20479;-84
2022/08/21 05:42:17;;;;;;;14.40;7.32;;;;;;;;;;5003877;28;20526;-85
2022/08/21 05:44:43;;;;;;;12.88;7.45;;;;;;;;;;5003881;28;20069;-85
2022/08/21 05:47:10;;;;;;;11.20;7.40;;;;;;;;;;4970752;28;20058;-85
2022/08/21 05:49:36;;;;;;;13.32;7.57;;;;;;;;;;5004119;28;20132;-85
2022/08/21 05:52:03;;;;;;;14.30;8.27;;;;;;;;;;5003631;28;20055;-85
2022/08/21 05:54:30;;;;;;;15.48;7.82;;;;;;;;;;5003718;28;20126;-85
2022/08/21 05:56:56;;;;;;;12.10;7.20;;;;;;;;;;4972100;28;20129;-85
2022/08/21 05:59:23;;;;;;;15.52;7.43;;;;;;;;;;5002690;28;20054;-85
2022/08/21 06:01:52;;;;;;;10.93;7.43;;;;;;;;;;5002051;28;20074;-88
2022/08/21 06:04:18;;;;;;;13.00;7.40;;;;;;;;;;5003870;28;20133;-85
2022/08/21 06:06:44;;;;;;;13.18;7.57;;;;;;;;;;5003346;28;20070;-90
2022/08/21 06:09:10;;;;;;;11.55;6.97;;;;;;;;;;4972161;28;20435;-85
2022/08/21 06:11:36;;;;;;;12.00;7.30;;;;;;;;;;4971893;28;20061;-86
2022/08/21 06:14:03;;;;;;;12.52;7.30;;;;;;;;;;5002733;28;20050;-85
2022/08/21 06:16:29;;;;;;;14.63;7.43;;;;;;;;;;5002372;28;21926;-85
2022/08/21 06:18:56;;;;;;;13.20;7.20;;;;;;;;;;5003146;28;20050;-85
2022/08/21 06:21:22;;;;;;;11.60;7.47;;;;;;;;;;5003683;28;20054;-85
2022/08/21 06:23:48;;;;;;;12.80;7.22;;;;;;;;;;4972636;28;20046;-85
2022/08/21 06:26:14;;;;;;;12.65;6.90;;;;;;;;;;4971740;28;20098;-85
2022/08/21 06:28:41;;;;;;;10.85;6.82;;;;;;;;;;5003271;28;20097;-85
2022/08/21 06:31:11;;;;;;;12.85;6.38;;;;;;;;;;4969161;28;20082;-85
2022/08/21 06:33:37;;;;;;;16.02;6.90;;;;;;;;;;5003546;28;20133;-85
2022/08/21 06:36:03;;;;;;;9.07;6.18;;;;;;;;;;4971223;28;20178;-85
2022/08/21 06:38:29;;;;;;;12.27;6.43;;;;;;;;;;4972118;28;20050;-86
2022/08/21 06:40:55;;;;;;;15.75;6.97;;;;;;;;;;4985938;28;20054;-86
2022/08/21 06:43:21;;;;;;;13.10;7.07;;;;;;;;;;5002952;28;20054;-85
2022/08/21 06:45:47;;;;;;;11.93;6.38;;;;;;;;;;5001887;28;20038;-86
2022/08/21 06:48:13;;;;;;;11.50;6.25;;;;;;;;;;4974026;28;21063;-86
2022/08/21 06:50:40;;;;;;;11.07;6.20;;;;;;;;;;4971907;28;20082;-85
2022/08/21 06:53:07;;;;;;;12.73;6.30;;;;;;;;;;4971616;28;20150;-86
2022/08/21 06:55:33;;;;;;;17.48;6.72;;;;;;;;;;4986706;28;20452;-85
2022/08/21 06:58:00;;;;;;;12.50;6.07;;;;;;;;;;4999645;28;20050;-90
2022/08/21 07:00:26;;;;;;;10.13;5.93;;;;;;;;;;5000555;28;20070;-87
2022/08/21 07:02:52;;;;;;;10.68;5.93;;;;;;;;;;4971235;28;20399;-86
2022/08/21 07:05:18;;;;;;;9.38;5.93;;;;;;;;;;4970976;28;20042;-86
2022/08/21 07:07:45;;;;;;;10.77;6.13;;;;;;;;;;4971941;28;20043;-86
2022/08/21 07:10:11;;;;;;;11.57;5.90;;;;;;;;;;4973647;28;20146;-86
2022/08/21 07:12:37;;;;;;;14.68;6.13;;;;;;;;;;4989619;28;20497;-86
2022/08/21 07:15:03;;;;;;;16.63;6.55;;;;;;;;;;4975036;28;20125;-86
2022/08/21 07:17:29;;;;;;;11.90;6.50;;;;;;;;;;5004557;28;20086;-86
2022/08/21 07:19:57;;;;;;;14.43;6.57;;;;;;;;;;4974874;28;20070;-86
2022/08/21 07:22:23;;;;;;;10.98;5.90;;;;;;;;;;4975659;28;20503;-86
2022/08/21 07:24:49;;;;;;;13.50;6.00;;;;;;;;;;4975324;28;20094;-86
2022/08/21 07:27:15;;;;;;;10.57;5.95;;;;;;;;;;5005566;28;20095;-86
2022/08/21 07:29:41;;;;;;;12.30;5.40;;;;;;;;;;5006237;28;20039;-85
2022/08/21 07:32:07;;;;;;;17.05;6.78;;;;;;;;;;4973356;28;20118;-85
2022/08/21 07:34:33;;;;;;;10.38;5.75;;;;;;;;;;4975267;28;20039;-83
2022/08/21 07:36:59;;;;;;;13.68;6.10;;;;;;;;;;4974662;28;20093;-83
2022/08/21 07:39:25;;;;;;;13.57;5.80;;;;;;;;;;4975033;28;20047;-83
2022/08/21 07:41:51;;;;;;;14.48;6.35;;;;;;;;;;4974449;28;20075;-84
2022/08/21 07:44:17;;;;;;;14.88;6.22;;;;;;;;;;5005730;28;20480;-84
2022/08/21 07:46:44;;;;;;;11.20;6.40;;;;;;;;;;5003136;28;20555;-84
2022/08/21 07:49:10;;;;;;;13.35;5.55;;;;;;;;;;5005879;28;20198;-84
2022/08/21 07:51:36;;;;;;;13.10;6.13;;;;;;;;;;5005445;28;20059;-83
2022/08/21 07:54:02;;;;;;;12.88;5.85;;;;;;;;;;4974416;28;20047;-83
2022/08/21 07:56:30;;;;;;;14.40;5.90;;;;;;;;;;4974205;28;20070;-83
2022/08/21 07:58:57;;;;;;;11.85;6.20;;;;;;;;;;4974395;28;20047;-83
2022/08/21 08:01:24;;;;;;;10.20;5.70;;;;;;;;;;5005138;28;20066;-83
2022/08/21 08:03:50;;;;;;;11.43;5.80;;;;;;;;;;4974659;28;20090;-83
2022/08/21 08:06:18;;;;;;;11.27;5.55;;;;;;;;;;4970167;28;20034;-84
2022/08/21 08:08:44;;;;;;;11.43;5.68;;;;;;;;;;4974424;28;20135;-84
2022/08/21 08:11:11;;;;;;;9.82;5.70;;;;;;;;;;4973701;28;20089;-84
2022/08/21 08:13:41;;;;;;;9.05;5.45;;;;;;;;;;4974257;28;20130;-84
2022/08/21 08:16:07;;;;;;;10.75;5.90;;;;;;;;;;4974030;28;20049;-84
2022/08/21 08:18:33;;;;;;;11.18;4.95;;;;;;;;;;4974285;28;20125;-84
2022/08/21 08:20:59;;;;;;;10.32;5.07;;;;;;;;;;4971813;28;20042;-85
2022/08/21 08:23:26;;;;;;;13.85;5.20;;;;;;;;;;4974158;28;20053;-86
2022/08/21 08:25:52;;;;;;;12.77;4.43;;;;;;;;;;5004076;28;20078;-84
2022/08/21 08:28:18;;;;;;;12.75;4.60;;;;;;;;;;5004619;28;20110;-84
2022/08/21 08:30:47;;;;;;;7.65;3.47;;;;;;;;;;4974248;28;20042;-84
2022/08/21 08:33:14;;;;;;;14.20;4.13;;;;;;;;;;4973669;28;20043;-84
2022/08/21 08:35:40;;;;;;;10.10;3.92;;;;;;;;;;5004423;28;20459;-84
2022/08/21 08:38:06;;;;;;;14.48;3.95;;;;;;;;;;5003893;28;20057;-84
2022/08/21 08:40:42;;;;;;;11.95;3.92;;;;;;;;;;4972919;28;20077;-83
2022/08/21 08:43:08;;;;;;;10.35;4.05;;;;;;;;;;4973795;28;20054;-84
2022/08/21 08:45:37;;;;;;;14.05;4.20;;;;;;;;;;4969079;28;20431;-84
2022/08/21 08:48:06;;;;;;;7.25;3.38;;;;;;;;;;4970638;28;20432;-84
2022/08/21 08:50:45;;;;;;;13.45;3.90;;;;;;;;;;4973092;28;20046;-84
2022/08/21 08:53:15;;;;;;;10.40;4.30;;;;;;;;;;4968136;28;20047;-84
2022/08/21 08:55:42;;;;;;;9.68;3.58;;;;;;;;;;4969514;28;20039;-84
2022/08/21 08:58:16;;;;;;;9.13;4.05;;;;;;;;;;5001350;28;20074;-84
2022/08/21 09:00:42;;;;;;;12.60;3.78;;;;;;;;;;5004796;28;20054;-85
2022/08/21 09:03:08;;;;;;;11.73;4.25;;;;;;;;;;5006022;28;20047;-84
2022/08/21 09:05:34;;;;;;;11.60;3.70;;;;;;;;;;5001742;28;20042;-84
2022/08/21 09:08:16;;;;;;;14.60;4.18;;;;;;;;;;4968315;28;20046;-84
2022/08/21 09:11:01;;;;;;;12.30;3.95;;;;;;;;;;5004399;28;20055;-86
2022/08/21 09:13:26;;;;;;;11.95;3.65;;;;;;;;;;5002671;28;20418;-84
2022/08/21 09:15:53;;;;;;;11.75;3.70;;;;;;;;;;4972961;28;20483;-84
2022/08/21 09:18:30;;;;;;;9.18;3.40;;;;;;;;;;4972664;28;20495;-84
2022/08/21 09:21:09;;;;;;;8.10;3.40;;;;;;;;;;5003449;28;20043;-84
2022/08/21 09:23:54;;;;;;;13.48;3.70;;;;;;;;;;4971791;28;20500;-83
2022/08/21 09:26:23;;;;;;;6.28;3.47;;;;;;;;;;4973092;28;20043;-84
2022/08/21 09:28:54;;;;;;;13.27;3.35;;;;;;;;;;5003421;28;20049;-84
2022/08/21 09:31:28;;;;;;;10.82;3.67;;;;;;;;;;4972856;28;20101;-84
2022/08/21 09:33:58;;;;;;;9.30;3.13;;;;;;;;;;4970093;28;20047;-84
2022/08/21 09:36:33;;;;;;;8.75;3.50;;;;;;;;;;4970679;28;20039;-85
2022/08/21 09:38:59;;;;;;;9.63;3.20;;;;;;;;;;4971682;28;20145;-84
2022/08/21 09:41:30;;;;;;;8.05;3.05;;;;;;;;;;4972604;28;20130;-90
2022/08/21 09:43:57;;;;;;;10.73;3.38;;;;;;;;;;4998889;28;20068;-84
2022/08/21 09:46:25;;;;;;;8.10;3.35;;;;;;;;;;4967686;28;20463;-83
2022/08/21 09:48:53;;;;;;;5.57;3.17;;;;;;;;;;4999701;28;20066;-84
2022/08/21 09:51:22;;;;;;;6.97;3.05;;;;;;;;;;4969890;28;20047;-84
2022/08/21 09:53:49;;;;;;;9.23;3.22;;;;;;;;;;5002891;28;20050;-84
2022/08/21 09:59:26;;;;;;;8.25;3.70;;;;;;;;;;4963089;28;20472;-84
2022/08/21 10:01:53;;;;;;;6.40;2.78;;;;;;;;;;4969569;28;20051;-84
2022/08/21 10:04:21;;;;;;;7.53;2.83;;;;;;;;;;4972496;28;20475;-84
2022/08/21 10:06:49;;;;;;;5.47;2.72;;;;;;;;;;4972283;28;20073;-84
2022/08/21 10:09:18;;;;;;;6.95;2.70;;;;;;;;;;4971732;28;20051;-84
2022/08/21 10:12:04;;;;;;;8.60;3.10;;;;;;;;;;5001075;28;20049;-84
2022/08/21 10:14:40;;;;;;;8.73;3.15;;;;;;;;;;4977405;28;20051;-84
2022/08/21 10:17:14;;;;;;;7.05;3.00;;;;;;;;;;4967817;28;20038;-83
2022/08/21 10:19:47;;;;;;;10.40;3.78;;;;;;;;;;4998733;28;20109;-83
2022/08/21 10:22:13;;;;;;;8.15;3.42;;;;;;;;;;4999865;28;20054;-83
2022/08/21 10:24:46;;;;;;;12.20;3.42;;;;;;;;;;4969773;28;20042;-86
2022/08/21 10:27:23;;;;;;;7.55;3.30;;;;;;;;;;4970378;28;20061;-83
2022/08/21 10:29:55;;;;;;;8.95;3.15;;;;;;;;;;4971369;28;20204;-84
2022/08/21 10:32:27;;;;;;;8.52;3.08;;;;;;;;;;5001442;28;20138;-83
2022/08/21 10:35:01;;;;;;;8.10;2.88;;;;;;;;;;5018291;28;20190;-83
2022/08/21 10:37:27;;;;;;;7.28;2.80;;;;;;;;;;4971660;28;20053;-83
2022/08/21 10:40:12;;;;;;;6.05;2.80;;;;;;;;;;4971700;28;20042;-83
2022/08/21 10:42:56;;;;;;;7.50;3.05;;;;;;;;;;4970303;28;20065;-83
2022/08/21 10:45:55;;;;;;;6.65;2.83;;;;;;;;;;4974256;28;20423;-83
2022/08/21 10:48:28;;;;;;;5.60;2.80;;;;;;;;;;4969656;28;20047;-83
2022/08/21 10:51:00;;;;;;;4.95;2.53;;;;;;;;;;5006057;28;20417;-83
2022/08/21 10:53:33;;;;;;;6.22;2.88;;;;;;;;;;4975679;28;20041;-83
2022/08/21 10:56:19;;;;;;;5.63;2.78;;;;;;;;;;4973651;28;20403;-83
2022/08/21 10:58:45;;;;;;;;;;;;;;;;;;4976008;28;20097;-83
2022/08/21 11:01:14;;;;;;;6.90;2.55;;;;;;;;;;5006686;28;19930;-83
2022/08/21 11:03:44;;;;;;;8.40;2.35;;;;;;;;;;4974876;28;20467;-83
2022/08/21 11:06:16;;;;;;;6.18;2.30;;;;;;;;;;4975273;28;20415;-83
2022/08/21 11:08:50;;;;;;;5.85;2.40;;;;;;;;;;4974854;28;20046;-83
2022/08/21 11:11:21;;;;;;;5.13;2.25;;;;;;;;;;4974319;28;20446;-83
2022/08/21 11:13:47;;;;;;;4.63;2.35;;;;;;;;;;5006294;28;20055;-84
2022/08/21 11:16:24;;;;;;;4.80;2.10;;;;;;;;;;4974406;28;20444;-83
2022/08/21 11:18:54;;;;;;;5.25;2.30;;;;;;;;;;4960983;28;20443;-83
2022/08/21 11:21:43;;;;;;;6.05;2.50;;;;;;;;;;4975174;28;20042;-83
2022/08/21 11:24:28;;;;;;;5.82;2.53;;;;;;;;;;4974740;28;20082;-83
2022/08/21 11:27:05;;;;;;;6.85;2.22;;;;;;;;;;4972587;28;20411;-83
2022/08/21 11:29:36;;;;;;;6.40;2.65;;;;;;;;;;4973439;28;20042;-83
2022/08/21 11:32:17;;;;;;;6.65;2.70;;;;;;;;;;4971510;28;20050;-83
2022/08/21 11:35:08;;;;;;;9.35;2.58;;;;;;;;;;4974482;28;20050;-83
2022/08/21 11:37:40;;;;;;;6.97;2.65;;;;;;;;;;4974815;28;20381;-83
2022/08/21 11:40:09;;;;;;;6.20;2.53;;;;;;;;;;5004627;28;20047;-83
2022/08/21 11:42:42;;;;;;;5.30;2.30;;;;;;;;;;5005987;28;20073;-83
2022/08/21 11:45:31;;;;;;;6.18;2.75;;;;;;;;;;4974264;28;20078;-83
2022/08/21 11:48:16;;;;;;;7.85;2.67;;;;;;;;;;4973548;28;20542;-83
2022/08/21 11:50:43;;;;;;;5.50;2.40;;;;;;;;;;4974678;28;20058;-83
2022/08/21 11:53:09;;;;;;;4.38;2.28;;;;;;;;;;4974618;28;20039;-83
2022/08/21 11:55:38;;;;;;;4.63;2.35;;;;;;;;;;4972407;28;20035;-83
2022/08/21 11:58:08;;;;;;;6.38;3.00;;;;;;;;;;4973381;28;20039;-83
2022/08/21 12:00:36;;;;;;;5.60;2.55;;;;;;;;;;4974290;28;20415;-83
2022/08/21 12:03:13;;;;;;;6.53;2.38;;;;;;;;;;4973535;28;20047;-83
2022/08/21 12:05:44;;;;;;;6.10;2.60;;;;;;;;;;5004889;28;20612;-83
2022/08/21 12:08:12;;;;;;;6.13;2.42;;;;;;;;;;4974211;28;20042;-83
2022/08/21 12:10:40;;;;;;;6.22;2.58;;;;;;;;;;4973542;28;20030;-83
2022/08/21 12:13:13;;;;;;;7.35;2.70;;;;;;;;;;5004305;28;20042;-83
2022/08/21 12:15:40;;;;;;;6.40;2.78;;;;;;;;;;4974217;28;20046;-83
2022/08/21 12:18:21;;;;;;;6.88;2.47;;;;;;;;;;4973263;28;20133;-83
2022/08/21 12:21:05;;;;;;;7.70;2.60;;;;;;;;;;4974181;28;20038;-84
2022/08/21 12:23:31;;;;;;;6.75;2.90;;;;;;;;;;5004863;28;20062;-84
2022/08/21 12:26:14;;;;;;;6.70;2.40;;;;;;;;;;4972656;28;20054;-83
2022/08/21 12:28:40;;;;;;;6.57;2.55;;;;;;;;;;4973004;28;20058;-82
2022/08/21 12:31:17;;;;;;;5.38;2.55;;;;;;;;;;4968366;28;20049;-84
2022/08/21 12:33:50;;;;;;;10.02;2.85;;;;;;;;;;4967542;28;20057;-83
2022/08/21 12:36:21;;;;;;;4.55;2.40;;;;;;;;;;5002878;28;20404;-83
2022/08/21 12:39:00;;;;;;;6.05;2.63;;;;;;;;;;4973250;28;20046;-83
2022/08/21 12:41:30;;;;;;;4.93;2.65;;;;;;;;;;4973892;28;20042;-84
2022/08/21 12:43:59;;;;;;;6.22;2.65;;;;;;;;;;5005101;28;20050;-84
2022/08/21 12:46:32;;;;;;;5.80;2.50;;;;;;;;;;4968767;28;20042;-83
2022/08/21 12:49:07;;;;;;;5.70;2.30;;;;;;;;;;4977998;28;20416;-83
2022/08/21 12:51:49;;;;;;;5.18;2.53;;;;;;;;;;5012982;28;20105;-86
2022/08/21 12:54:23;;;;;;;6.32;2.55;;;;;;;;;;4962540;28;20046;-83
2022/08/21 12:56:56;;;;;;;6.07;2.15;;;;;;;;;;4973136;28;20051;-83
2022/08/21 12:59:22;;;;;;;6.68;3.00;;;;;;;;;;4971310;28;20100;-83
2022/08/21 13:01:49;;;;;;;5.28;2.30;;;;;;;;;;5002433;28;20051;-83
2022/08/21 13:04:39;;;;;;;5.00;2.35;;;;;;;;;;4972306;28;20440;-84
2022/08/21 13:07:12;;;;;;;5.28;2.28;;;;;;;;;;4957625;28;20066;-83
2022/08/21 13:09:43;;;;;;;6.55;2.38;;;;;;;;;;4969290;28;20042;-83
2022/08/21 13:12:09;;;;;;;5.32;2.40;;;;;;;;;;4972910;28;20054;-83
2022/08/21 13:14:42;;;;;;;4.25;2.33;;;;;;;;;;4971723;28;20035;-83
2022/08/21 13:17:08;;;;;;;6.47;2.30;;;;;;;;;;4970491;28;20081;-83
2022/08/21 13:19:35;;;;;;;7.22;2.47;;;;;;;;;;5000182;28;20047;-90
2022/08/21 13:22:02;;;;;;;7.53;2.47;;;;;;;;;;5009819;28;20065;-83
2022/08/21 13:24:30;;;;;;;6.45;2.20;;;;;;;;;;4972895;28;20054;-83
2022/08/21 13:26:57;;;;;;;4.72;2.10;;;;;;;;;;5003957;28;20154;-83
2022/08/21 13:29:27;;;;;;;7.85;2.40;;;;;;;;;;4971536;28;20043;-83
2022/08/21 13:31:55;;;;;;;5.90;2.65;;;;;;;;;;4972831;28;20046;-84
2022/08/21 13:34:23;;;;;;;5.53;2.50;;;;;;;;;;4972666;28;20065;-83
2022/08/21 13:36:51;;;;;;;7.10;2.75;;;;;;;;;;4970586;28;20047;-83
2022/08/21 13:39:19;;;;;;;6.80;2.58;;;;;;;;;;4972479;28;20043;-83
2022/08/21 13:41:46;;;;;;;7.60;2.50;;;;;;;;;;4972910;28;20039;-83
2022/08/21 13:44:21;;;;;;;6.10;2.47;;;;;;;;;;4969770;28;20046;-83
2022/08/21 13:46:48;;;;;;;7.00;2.60;;;;;;;;;;5003601;28;20067;-83
2022/08/21 13:49:16;;;;;;;6.60;2.30;;;;;;;;;;4971093;28;20086;-83
2022/08/21 13:51:42;;;;;;;7.53;2.58;;;;;;;;;;4972778;28;20054;-84
2022/08/21 13:54:16;;;;;;;5.95;2.30;;;;;;;;;;5003084;28;20054;-86
2022/08/21 13:56:44;;;;;;;7.43;2.40;;;;;;;;;;5003808;28;20043;-85
2022/08/21 13:59:10;;;;;;;5.63;2.42;;;;;;;;;;4971976;28;20488;-89
2022/08/21 14:01:39;;;;;;;5.65;2.30;;;;;;;;;;5004437;28;20047;-90
2022/08/21 14:04:17;;;;;;;6.95;2.70;;;;;;;;;;4972539;28;20042;-91
2022/08/21 14:06:43;;;;;;;6.90;2.25;;;;;;;;;;4972659;28;20053;-91
2022/08/21 14:09:09;;;;;;;5.95;2.45;;;;;;;;;;4973492;28;20392;-91
2022/08/21 14:11:36;;;;;;;8.60;2.85;;;;;;;;;;5004746;28;20074;-92
2022/08/21 14:14:03;;;;;;;6.55;2.67;;;;;;;;;;5006553;28;20077;-92
2022/08/21 14:16:44;;;;;;;8.43;2.60;;;;;;;;;;4974592;28;20047;-87
2022/08/21 14:19:19;;;;;;;9.05;2.78;;;;;;;;;;4992284;28;20039;-96
2022/08/21 14:21:45;;;;;;;6.28;2.88;;;;;;;;;;5035543;28;20094;-94
2022/08/21 14:24:13;;;;;;;8.63;2.80;;;;;;;;;;5014048;28;20058;-92
2022/08/21 14:26:45;;;;;;;5.43;2.75;;;;;;;;;;5023989;28;20050;-90
2022/08/21 14:29:13;;;;;;;10.50;2.70;;;;;;;;;;4976582;28;20055;-90
2022/08/21 14:31:39;;;;;;;5.80;2.50;;;;;;;;;;5007759;28;20523;-90
2022/08/21 14:34:05;;;;;;;7.75;2.78;;;;;;;;;;4974991;28;20078;-89
2022/08/21 14:36:31;;;;;;;7.35;2.58;;;;;;;;;;4973178;28;20105;-90
2022/08/21 14:38:57;;;;;;;5.70;2.60;;;;;;;;;;4975770;28;20440;-90
2022/08/21 14:41:25;;;;;;;5.78;2.22;;;;;;;;;;4975604;28;20085;-92
2022/08/21 14:43:52;;;;;;;7.47;2.80;;;;;;;;;;4973964;28;20518;-89
2022/08/21 14:46:22;;;;;;;6.82;2.58;;;;;;;;;;4956693;28;20086;-90
2022/08/21 14:48:48;;;;;;;5.68;2.28;;;;;;;;;;4964600;28;20425;-89